sensor_id;sensor_type;location;lat;lon;timestamp;P1;durP1;ratioP1;P2;durP2;ratioP2
32365;SDS011;18837;46.832;16.838;2023-02-01T00:00:02;18.93;;;12.13;;
32365;SDS011;18837;46.832;16.838;2023-02-01T00:02:29;19.27;;;12.57;;
32365;SDS011;18837;46.832;16.838;2023-02-01T00:04:55;18.70;;;12.20;;
32365;SDS011;18837;46.832;16.838;2023-02-01T00:07:20;20.50;;;12.33;;
32365;SDS011;18837;46.832;16.838;2023-02-01T00:09:46;17.77;;;12.20;;
32365;SDS011;18837;46.832;16.838;2023-02-01T00:12:12;18.17;;;12.27;;
32365;SDS011;18837;46.832;16.838;2023-02-01T00:14:38;17.93;;;12.07;;
32365;SDS011;18837;46.832;16.838;2023-02-01T00:17:07;18.73;;;12.37;;
32365;SDS011;18837;46.832;16.838;2023-02-01T00:19:34;19.03;;;11.90;;
32365;SDS011;18837;46.832;16.838;2023-02-01T00:22:00;18.50;;;11.27;;
32365;SDS011;18837;46.832;16.838;2023-02-01T00:24:25;21.07;;;13.10;;
32365;SDS011;18837;46.832;16.838;2023-02-01T00:26:51;18.97;;;11.77;;
32365;SDS011;18837;46.832;16.838;2023-02-01T00:29:18;17.17;;;11.77;;
32365;SDS011;18837;46.832;16.838;2023-02-01T00:31:45;17.33;;;12.57;;
32365;SDS011;18837;46.832;16.838;2023-02-01T00:34:12;16.37;;;11.83;;
32365;SDS011;18837;46.832;16.838;2023-02-01T00:36:40;19.93;;;12.23;;
32365;SDS011;18837;46.832;16.838;2023-02-01T00:39:07;21.70;;;12.33;;
32365;SDS011;18837;46.832;16.838;2023-02-01T00:41:34;18.90;;;12.13;;
32365;SDS011;18837;46.832;16.838;2023-02-01T00:43:59;18.80;;;12.40;;
32365;SDS011;18837;46.832;16.838;2023-02-01T00:46:26;16.47;;;11.60;;
32365;SDS011;18837;46.832;16.838;2023-02-01T00:48:52;20.00;;;11.70;;
32365;SDS011;18837;46.832;16.838;2023-02-01T00:51:23;18.40;;;11.43;;
32365;SDS011;18837;46.832;16.838;2023-02-01T00:53:51;18.97;;;12.50;;
32365;SDS011;18837;46.832;16.838;2023-02-01T00:56:17;18.07;;;12.30;;
32365;SDS011;18837;46.832;16.838;2023-02-01T00:58:43;18.93;;;12.70;;
32365;SDS011;18837;46.832;16.838;2023-02-01T01:03:38;22.57;;;11.87;;
32365;SDS011;18837;46.832;16.838;2023-02-01T01:06:07;16.43;;;12.13;;
32365;SDS011;18837;46.832;16.838;2023-02-01T01:08:38;17.90;;;12.40;;
32365;SDS011;18837;46.832;16.838;2023-02-01T01:11:09;17.17;;;11.50;;
32365;SDS011;18837;46.832;16.838;2023-02-01T01:13:35;16.60;;;11.47;;
32365;SDS011;18837;46.832;16.838;2023-02-01T01:16:02;18.97;;;11.97;;
32365;SDS011;18837;46.832;16.838;2023-02-01T01:18:29;17.40;;;12.17;;
32365;SDS011;18837;46.832;16.838;2023-02-01T01:20:56;18.37;;;12.50;;
32365;SDS011;18837;46.832;16.838;2023-02-01T01:23:22;20.93;;;12.73;;
32365;SDS011;18837;46.832;16.838;2023-02-01T01:25:49;18.30;;;12.47;;
32365;SDS011;18837;46.832;16.838;2023-02-01T01:28:14;16.73;;;11.57;;
32365;SDS011;18837;46.832;16.838;2023-02-01T01:30:40;19.37;;;12.50;;
32365;SDS011;18837;46.832;16.838;2023-02-01T01:33:06;19.27;;;12.63;;
32365;SDS011;18837;46.832;16.838;2023-02-01T01:35:32;20.93;;;12.83;;
32365;SDS011;18837;46.832;16.838;2023-02-01T01:37:59;19.13;;;11.77;;
32365;SDS011;18837;46.832;16.838;2023-02-01T01:40:26;18.00;;;12.20;;
32365;SDS011;18837;46.832;16.838;2023-02-01T01:42:53;15.87;;;11.43;;
32365;SDS011;18837;46.832;16.838;2023-02-01T01:45:24;17.53;;;11.20;;
32365;SDS011;18837;46.832;16.838;2023-02-01T01:47:54;18.50;;;11.13;;
32365;SDS011;18837;46.832;16.838;2023-02-01T01:50:28;17.77;;;11.40;;
32365;SDS011;18837;46.832;16.838;2023-02-01T01:53:01;19.77;;;12.47;;
32365;SDS011;18837;46.832;16.838;2023-02-01T01:55:31;18.37;;;11.93;;
32365;SDS011;18837;46.832;16.838;2023-02-01T01:58:02;17.10;;;11.77;;
32365;SDS011;18837;46.832;16.838;2023-02-01T02:00:30;19.30;;;12.37;;
32365;SDS011;18837;46.832;16.838;2023-02-01T02:02:58;15.47;;;11.37;;
32365;SDS011;18837;46.832;16.838;2023-02-01T02:05:30;15.53;;;11.30;;
32365;SDS011;18837;46.832;16.838;2023-02-01T02:07:57;16.97;;;11.87;;
32365;SDS011;18837;46.832;16.838;2023-02-01T02:10:26;17.40;;;11.77;;
32365;SDS011;18837;46.832;16.838;2023-02-01T02:13:12;17.07;;;11.80;;
32365;SDS011;18837;46.832;16.838;2023-02-01T02:15:40;16.73;;;11.40;;
32365;SDS011;18837;46.832;16.838;2023-02-01T02:18:22;17.40;;;11.53;;
32365;SDS011;18837;46.832;16.838;2023-02-01T02:27:17;15.47;;;10.57;;
32365;SDS011;18837;46.832;16.838;2023-02-01T02:35:46;16.70;;;10.53;;
32365;SDS011;18837;46.832;16.838;2023-02-01T02:38:41;17.07;;;10.23;;
32365;SDS011;18837;46.832;16.838;2023-02-01T02:41:33;15.30;;;9.60;;
32365;SDS011;18837;46.832;16.838;2023-02-01T02:44:55;14.90;;;9.60;;
32365;SDS011;18837;46.832;16.838;2023-02-01T02:54:02;15.67;;;9.70;;
32365;SDS011;18837;46.832;16.838;2023-02-01T02:56:59;13.27;;;9.27;;
32365;SDS011;18837;46.832;16.838;2023-02-01T02:59:47;13.03;;;9.17;;
32365;SDS011;18837;46.832;16.838;2023-02-01T03:02:32;15.10;;;8.53;;
32365;SDS011;18837;46.832;16.838;2023-02-01T03:05:17;15.03;;;9.20;;
32365;SDS011;18837;46.832;16.838;2023-02-01T03:10:24;14.67;;;9.27;;
32365;SDS011;18837;46.832;16.838;2023-02-01T03:13:55;12.60;;;8.30;;
32365;SDS011;18837;46.832;16.838;2023-02-01T03:21:32;11.33;;;8.00;;
32365;SDS011;18837;46.832;16.838;2023-02-01T03:24:04;10.60;;;7.57;;
32365;SDS011;18837;46.832;16.838;2023-02-01T03:26:36;10.77;;;8.00;;
32365;SDS011;18837;46.832;16.838;2023-02-01T03:29:12;12.80;;;8.03;;
32365;SDS011;18837;46.832;16.838;2023-02-01T03:31:42;12.37;;;8.37;;
32365;SDS011;18837;46.832;16.838;2023-02-01T03:34:08;12.07;;;7.37;;
32365;SDS011;18837;46.832;16.838;2023-02-01T03:36:38;11.97;;;8.10;;
32365;SDS011;18837;46.832;16.838;2023-02-01T03:39:27;10.87;;;8.27;;
32365;SDS011;18837;46.832;16.838;2023-02-01T03:42:19;10.07;;;7.40;;
32365;SDS011;18837;46.832;16.838;2023-02-01T03:44:50;12.37;;;8.00;;
32365;SDS011;18837;46.832;16.838;2023-02-01T03:47:26;11.60;;;8.07;;
32365;SDS011;18837;46.832;16.838;2023-02-01T03:49:57;10.40;;;7.10;;
32365;SDS011;18837;46.832;16.838;2023-02-01T03:52:30;10.37;;;7.33;;
32365;SDS011;18837;46.832;16.838;2023-02-01T03:55:18;11.00;;;6.90;;
32365;SDS011;18837;46.832;16.838;2023-02-01T04:00:34;10.90;;;7.10;;
32365;SDS011;18837;46.832;16.838;2023-02-01T04:03:00;12.50;;;7.63;;
32365;SDS011;18837;46.832;16.838;2023-02-01T04:05:28;10.87;;;7.10;;
32365;SDS011;18837;46.832;16.838;2023-02-01T04:07:55;11.20;;;7.77;;
32365;SDS011;18837;46.832;16.838;2023-02-01T04:10:21;11.80;;;7.67;;
32365;SDS011;18837;46.832;16.838;2023-02-01T04:12:51;10.17;;;7.23;;
32365;SDS011;18837;46.832;16.838;2023-02-01T04:15:17;10.43;;;7.43;;
32365;SDS011;18837;46.832;16.838;2023-02-01T04:17:43;13.00;;;7.60;;
32365;SDS011;18837;46.832;16.838;2023-02-01T04:20:11;12.23;;;7.37;;
32365;SDS011;18837;46.832;16.838;2023-02-01T04:22:37;10.33;;;7.40;;
32365;SDS011;18837;46.832;16.838;2023-02-01T04:25:03;10.97;;;7.40;;
32365;SDS011;18837;46.832;16.838;2023-02-01T04:27:31;10.87;;;7.23;;
32365;SDS011;18837;46.832;16.838;2023-02-01T04:29:57;10.10;;;7.40;;
32365;SDS011;18837;46.832;16.838;2023-02-01T04:32:23;10.43;;;7.63;;
32365;SDS011;18837;46.832;16.838;2023-02-01T04:34:48;11.07;;;7.70;;
32365;SDS011;18837;46.832;16.838;2023-02-01T04:37:14;9.53;;;6.87;;
32365;SDS011;18837;46.832;16.838;2023-02-01T04:39:40;9.53;;;6.70;;
32365;SDS011;18837;46.832;16.838;2023-02-01T04:42:05;11.27;;;7.40;;
32365;SDS011;18837;46.832;16.838;2023-02-01T04:44:31;10.57;;;7.80;;
32365;SDS011;18837;46.832;16.838;2023-02-01T04:46:57;13.33;;;7.87;;
32365;SDS011;18837;46.832;16.838;2023-02-01T04:49:23;10.77;;;7.70;;
32365;SDS011;18837;46.832;16.838;2023-02-01T04:51:51;8.97;;;7.00;;
32365;SDS011;18837;46.832;16.838;2023-02-01T04:54:17;12.13;;;8.33;;
32365;SDS011;18837;46.832;16.838;2023-02-01T04:56:43;11.83;;;8.00;;
32365;SDS011;18837;46.832;16.838;2023-02-01T04:59:10;11.43;;;7.93;;
32365;SDS011;18837;46.832;16.838;2023-02-01T05:01:36;11.20;;;7.90;;
32365;SDS011;18837;46.832;16.838;2023-02-01T05:04:02;10.73;;;7.80;;
32365;SDS011;18837;46.832;16.838;2023-02-01T05:06:28;12.33;;;7.73;;
32365;SDS011;18837;46.832;16.838;2023-02-01T05:08:54;13.03;;;7.83;;
32365;SDS011;18837;46.832;16.838;2023-02-01T05:11:20;10.83;;;7.80;;
32365;SDS011;18837;46.832;16.838;2023-02-01T05:14:04;10.90;;;8.23;;
32365;SDS011;18837;46.832;16.838;2023-02-01T05:16:30;11.23;;;7.70;;
32365;SDS011;18837;46.832;16.838;2023-02-01T05:18:56;12.33;;;8.00;;
32365;SDS011;18837;46.832;16.838;2023-02-01T05:21:21;11.90;;;8.37;;
32365;SDS011;18837;46.832;16.838;2023-02-01T05:23:47;13.20;;;9.30;;
32365;SDS011;18837;46.832;16.838;2023-02-01T05:26:32;12.37;;;8.50;;
32365;SDS011;18837;46.832;16.838;2023-02-01T05:28:58;13.13;;;8.33;;
32365;SDS011;18837;46.832;16.838;2023-02-01T05:31:24;12.90;;;9.53;;
32365;SDS011;18837;46.832;16.838;2023-02-01T05:33:50;13.57;;;8.77;;
32365;SDS011;18837;46.832;16.838;2023-02-01T05:36:16;13.23;;;8.87;;
32365;SDS011;18837;46.832;16.838;2023-02-01T05:38:42;14.53;;;9.40;;
32365;SDS011;18837;46.832;16.838;2023-02-01T05:41:10;15.17;;;8.93;;
32365;SDS011;18837;46.832;16.838;2023-02-01T05:43:36;13.50;;;9.20;;
32365;SDS011;18837;46.832;16.838;2023-02-01T05:46:02;14.20;;;9.63;;
32365;SDS011;18837;46.832;16.838;2023-02-01T05:48:28;16.30;;;9.27;;
32365;SDS011;18837;46.832;16.838;2023-02-01T05:50:53;14.10;;;9.30;;
32365;SDS011;18837;46.832;16.838;2023-02-01T05:53:19;12.60;;;9.10;;
32365;SDS011;18837;46.832;16.838;2023-02-01T05:55:45;14.33;;;9.67;;
32365;SDS011;18837;46.832;16.838;2023-02-01T05:58:11;13.20;;;10.00;;
32365;SDS011;18837;46.832;16.838;2023-02-01T06:00:38;14.63;;;8.67;;
32365;SDS011;18837;46.832;16.838;2023-02-01T06:03:03;14.57;;;9.50;;
32365;SDS011;18837;46.832;16.838;2023-02-01T06:05:29;13.27;;;8.97;;
32365;SDS011;18837;46.832;16.838;2023-02-01T06:07:55;12.70;;;8.53;;
32365;SDS011;18837;46.832;16.838;2023-02-01T06:10:22;13.23;;;8.77;;
32365;SDS011;18837;46.832;16.838;2023-02-01T06:12:48;15.57;;;9.60;;
32365;SDS011;18837;46.832;16.838;2023-02-01T06:15:14;13.07;;;9.17;;
32365;SDS011;18837;46.832;16.838;2023-02-01T06:17:43;12.17;;;8.97;;
32365;SDS011;18837;46.832;16.838;2023-02-01T06:20:11;11.83;;;8.07;;
32365;SDS011;18837;46.832;16.838;2023-02-01T06:22:38;12.00;;;9.07;;
32365;SDS011;18837;46.832;16.838;2023-02-01T06:25:05;12.33;;;8.47;;
32365;SDS011;18837;46.832;16.838;2023-02-01T06:27:32;11.37;;;8.00;;
32365;SDS011;18837;46.832;16.838;2023-02-01T06:29:58;13.80;;;8.97;;
32365;SDS011;18837;46.832;16.838;2023-02-01T06:32:24;12.47;;;8.53;;
32365;SDS011;18837;46.832;16.838;2023-02-01T06:34:50;12.00;;;8.67;;
32365;SDS011;18837;46.832;16.838;2023-02-01T06:37:18;14.03;;;8.53;;
32365;SDS011;18837;46.832;16.838;2023-02-01T06:39:44;11.87;;;8.97;;
32365;SDS011;18837;46.832;16.838;2023-02-01T06:42:10;12.23;;;8.63;;
32365;SDS011;18837;46.832;16.838;2023-02-01T06:44:36;15.03;;;9.10;;
32365;SDS011;18837;46.832;16.838;2023-02-01T06:47:03;10.93;;;8.07;;
32365;SDS011;18837;46.832;16.838;2023-02-01T06:49:29;10.03;;;7.47;;
32365;SDS011;18837;46.832;16.838;2023-02-01T06:51:55;11.67;;;8.30;;
32365;SDS011;18837;46.832;16.838;2023-02-01T06:54:21;12.43;;;8.70;;
32365;SDS011;18837;46.832;16.838;2023-02-01T06:56:46;13.00;;;8.33;;
32365;SDS011;18837;46.832;16.838;2023-02-01T06:59:12;11.97;;;8.30;;
32365;SDS011;18837;46.832;16.838;2023-02-01T07:01:38;12.50;;;8.53;;
32365;SDS011;18837;46.832;16.838;2023-02-01T07:04:05;13.00;;;8.37;;
32365;SDS011;18837;46.832;16.838;2023-02-01T07:06:30;13.23;;;9.00;;
32365;SDS011;18837;46.832;16.838;2023-02-01T07:08:56;11.63;;;8.53;;
32365;SDS011;18837;46.832;16.838;2023-02-01T07:11:22;12.90;;;8.70;;
32365;SDS011;18837;46.832;16.838;2023-02-01T07:13:48;13.80;;;9.70;;
32365;SDS011;18837;46.832;16.838;2023-02-01T07:16:15;13.87;;;9.50;;
32365;SDS011;18837;46.832;16.838;2023-02-01T07:18:46;16.07;;;10.40;;
32365;SDS011;18837;46.832;16.838;2023-02-01T07:21:12;16.63;;;11.03;;
32365;SDS011;18837;46.832;16.838;2023-02-01T07:23:38;15.17;;;9.87;;
32365;SDS011;18837;46.832;16.838;2023-02-01T07:26:05;16.00;;;10.03;;
32365;SDS011;18837;46.832;16.838;2023-02-01T07:28:33;16.00;;;10.23;;
32365;SDS011;18837;46.832;16.838;2023-02-01T07:31:06;15.73;;;10.30;;
32365;SDS011;18837;46.832;16.838;2023-02-01T07:33:34;17.63;;;10.73;;
32365;SDS011;18837;46.832;16.838;2023-02-01T07:36:00;15.77;;;10.83;;
32365;SDS011;18837;46.832;16.838;2023-02-01T07:38:28;17.60;;;10.53;;
32365;SDS011;18837;46.832;16.838;2023-02-01T07:40:58;17.20;;;10.70;;
32365;SDS011;18837;46.832;16.838;2023-02-01T07:43:28;15.40;;;10.60;;
32365;SDS011;18837;46.832;16.838;2023-02-01T07:45:56;15.47;;;9.90;;
32365;SDS011;18837;46.832;16.838;2023-02-01T07:48:22;18.33;;;11.13;;
32365;SDS011;18837;46.832;16.838;2023-02-01T07:53:28;18.90;;;11.03;;
32365;SDS011;18837;46.832;16.838;2023-02-01T07:55:55;18.07;;;11.73;;
32365;SDS011;18837;46.832;16.838;2023-02-01T07:58:22;18.40;;;11.10;;
32365;SDS011;18837;46.832;16.838;2023-02-01T08:00:49;20.53;;;12.07;;
32365;SDS011;18837;46.832;16.838;2023-02-01T08:03:39;18.27;;;11.43;;
32365;SDS011;18837;46.832;16.838;2023-02-01T08:06:05;17.50;;;11.70;;
32365;SDS011;18837;46.832;16.838;2023-02-01T08:08:31;16.30;;;11.80;;
32365;SDS011;18837;46.832;16.838;2023-02-01T08:10:58;17.20;;;11.83;;
32365;SDS011;18837;46.832;16.838;2023-02-01T08:13:25;18.00;;;11.43;;
32365;SDS011;18837;46.832;16.838;2023-02-01T08:15:51;18.20;;;11.83;;
32365;SDS011;18837;46.832;16.838;2023-02-01T08:18:16;16.97;;;11.07;;
32365;SDS011;18837;46.832;16.838;2023-02-01T08:20:43;16.80;;;11.23;;
32365;SDS011;18837;46.832;16.838;2023-02-01T08:23:11;15.57;;;10.80;;
32365;SDS011;18837;46.832;16.838;2023-02-01T08:25:37;19.77;;;11.27;;
32365;SDS011;18837;46.832;16.838;2023-02-01T08:28:04;16.63;;;10.83;;
32365;SDS011;18837;46.832;16.838;2023-02-01T08:30:30;16.90;;;10.50;;
32365;SDS011;18837;46.832;16.838;2023-02-01T08:32:56;15.37;;;10.13;;
32365;SDS011;18837;46.832;16.838;2023-02-01T08:35:22;17.60;;;11.37;;
32365;SDS011;18837;46.832;16.838;2023-02-01T08:37:51;15.10;;;10.60;;
32365;SDS011;18837;46.832;16.838;2023-02-01T08:40:17;13.83;;;10.73;;
32365;SDS011;18837;46.832;16.838;2023-02-01T08:42:44;15.43;;;9.90;;
32365;SDS011;18837;46.832;16.838;2023-02-01T08:45:16;14.57;;;10.67;;
32365;SDS011;18837;46.832;16.838;2023-02-01T08:47:53;15.30;;;10.20;;
32365;SDS011;18837;46.832;16.838;2023-02-01T08:50:19;15.37;;;10.40;;
32365;SDS011;18837;46.832;16.838;2023-02-01T08:52:46;15.10;;;10.03;;
32365;SDS011;18837;46.832;16.838;2023-02-01T08:55:12;15.70;;;10.33;;
32365;SDS011;18837;46.832;16.838;2023-02-01T08:57:39;15.43;;;9.57;;
32365;SDS011;18837;46.832;16.838;2023-02-01T09:00:06;15.87;;;10.13;;
32365;SDS011;18837;46.832;16.838;2023-02-01T09:02:35;15.80;;;10.27;;
32365;SDS011;18837;46.832;16.838;2023-02-01T09:05:01;14.40;;;9.90;;
32365;SDS011;18837;46.832;16.838;2023-02-01T09:07:28;14.57;;;9.53;;
32365;SDS011;18837;46.832;16.838;2023-02-01T09:09:54;12.80;;;9.53;;
32365;SDS011;18837;46.832;16.838;2023-02-01T09:12:21;14.10;;;9.53;;
32365;SDS011;18837;46.832;16.838;2023-02-01T09:14:47;15.37;;;10.13;;
32365;SDS011;18837;46.832;16.838;2023-02-01T09:17:13;16.90;;;11.00;;
32365;SDS011;18837;46.832;16.838;2023-02-01T09:19:39;16.30;;;10.97;;
32365;SDS011;18837;46.832;16.838;2023-02-01T09:22:05;17.03;;;10.70;;
32365;SDS011;18837;46.832;16.838;2023-02-01T09:24:30;16.77;;;10.30;;
32365;SDS011;18837;46.832;16.838;2023-02-01T09:29:48;14.77;;;9.87;;
32365;SDS011;18837;46.832;16.838;2023-02-01T09:32:20;16.03;;;10.27;;
32365;SDS011;18837;46.832;16.838;2023-02-01T09:34:47;14.73;;;9.80;;
32365;SDS011;18837;46.832;16.838;2023-02-01T09:37:13;12.93;;;9.50;;
32365;SDS011;18837;46.832;16.838;2023-02-01T09:39:40;13.60;;;9.70;;
32365;SDS011;18837;46.832;16.838;2023-02-01T09:42:16;13.20;;;9.63;;
32365;SDS011;18837;46.832;16.838;2023-02-01T09:45:04;14.80;;;9.70;;
32365;SDS011;18837;46.832;16.838;2023-02-01T09:47:36;13.77;;;9.23;;
32365;SDS011;18837;46.832;16.838;2023-02-01T09:50:11;16.00;;;9.67;;
32365;SDS011;18837;46.832;16.838;2023-02-01T09:55:38;12.27;;;8.10;;
32365;SDS011;18837;46.832;16.838;2023-02-01T10:00:38;11.70;;;7.87;;
32365;SDS011;18837;46.832;16.838;2023-02-01T10:03:10;15.17;;;8.33;;
32365;SDS011;18837;46.832;16.838;2023-02-01T10:05:48;11.73;;;7.10;;
32365;SDS011;18837;46.832;16.838;2023-02-01T10:11:12;11.50;;;7.77;;
32365;SDS011;18837;46.832;16.838;2023-02-01T10:13:51;10.93;;;7.63;;
32365;SDS011;18837;46.832;16.838;2023-02-01T10:16:29;14.97;;;8.10;;
32365;SDS011;18837;46.832;16.838;2023-02-01T10:19:24;10.30;;;7.40;;
32365;SDS011;18837;46.832;16.838;2023-02-01T10:22:34;11.23;;;7.33;;
32365;SDS011;18837;46.832;16.838;2023-02-01T10:25:20;12.07;;;8.47;;
32365;SDS011;18837;46.832;16.838;2023-02-01T10:28:06;14.20;;;10.03;;
32365;SDS011;18837;46.832;16.838;2023-02-01T10:30:39;14.57;;;11.13;;
32365;SDS011;18837;46.832;16.838;2023-02-01T10:33:25;16.00;;;10.67;;
32365;SDS011;18837;46.832;16.838;2023-02-01T10:41:48;15.17;;;8.93;;
32365;SDS011;18837;46.832;16.838;2023-02-01T10:44:19;11.77;;;8.80;;
32365;SDS011;18837;46.832;16.838;2023-02-01T10:46:49;12.53;;;8.40;;
32365;SDS011;18837;46.832;16.838;2023-02-01T10:49:22;13.27;;;8.47;;
32365;SDS011;18837;46.832;16.838;2023-02-01T10:51:58;12.23;;;7.90;;
32365;SDS011;18837;46.832;16.838;2023-02-01T10:54:37;12.17;;;7.27;;
32365;SDS011;18837;46.832;16.838;2023-02-01T10:57:08;11.73;;;7.53;;
32365;SDS011;18837;46.832;16.838;2023-02-01T10:59:35;10.87;;;7.20;;
32365;SDS011;18837;46.832;16.838;2023-02-01T11:02:46;10.27;;;6.97;;
32365;SDS011;18837;46.832;16.838;2023-02-01T11:04:58;11.37;;;7.90;;
32365;SDS011;18837;46.832;16.838;2023-02-01T11:07:31;10.60;;;7.27;;
32365;SDS011;18837;46.832;16.838;2023-02-01T11:10:00;11.50;;;7.47;;
32365;SDS011;18837;46.832;16.838;2023-02-01T11:15:22;9.23;;;6.60;;
32365;SDS011;18837;46.832;16.838;2023-02-01T11:17:50;11.37;;;7.57;;
32365;SDS011;18837;46.832;16.838;2023-02-01T11:20:25;11.50;;;7.37;;
32365;SDS011;18837;46.832;16.838;2023-02-01T11:23:02;13.93;;;7.50;;
32365;SDS011;18837;46.832;16.838;2023-02-01T11:25:29;13.40;;;8.30;;
32365;SDS011;18837;46.832;16.838;2023-02-01T11:27:57;19.50;;;11.50;;
32365;SDS011;18837;46.832;16.838;2023-02-01T11:30:32;12.50;;;8.10;;
32365;SDS011;18837;46.832;16.838;2023-02-01T11:33:01;12.53;;;7.40;;
32365;SDS011;18837;46.832;16.838;2023-02-01T11:35:30;11.17;;;7.03;;
32365;SDS011;18837;46.832;16.838;2023-02-01T11:37:57;10.07;;;6.47;;
32365;SDS011;18837;46.832;16.838;2023-02-01T11:40:29;13.67;;;7.20;;
32365;SDS011;18837;46.832;16.838;2023-02-01T11:43:08;10.60;;;6.57;;
32365;SDS011;18837;46.832;16.838;2023-02-01T11:51:55;11.73;;;8.07;;
32365;SDS011;18837;46.832;16.838;2023-02-01T11:57:43;11.33;;;7.23;;
32365;SDS011;18837;46.832;16.838;2023-02-01T12:00:32;12.33;;;7.57;;
32365;SDS011;18837;46.832;16.838;2023-02-01T12:09:13;9.93;;;6.90;;
32365;SDS011;18837;46.832;16.838;2023-02-01T12:31:44;8.97;;;6.10;;
32365;SDS011;18837;46.832;16.838;2023-02-01T12:48:25;8.77;;;6.00;;
32365;SDS011;18837;46.832;16.838;2023-02-01T12:51:03;10.23;;;6.17;;
32365;SDS011;18837;46.832;16.838;2023-02-01T13:07:25;7.77;;;5.77;;
32365;SDS011;18837;46.832;16.838;2023-02-01T13:10:07;9.03;;;6.77;;
32365;SDS011;18837;46.832;16.838;2023-02-01T13:18:36;10.70;;;6.57;;
32365;SDS011;18837;46.832;16.838;2023-02-01T13:21:12;9.33;;;6.30;;
32365;SDS011;18837;46.832;16.838;2023-02-01T13:23:47;9.27;;;6.67;;
32365;SDS011;18837;46.832;16.838;2023-02-01T13:26:14;9.73;;;6.70;;
32365;SDS011;18837;46.832;16.838;2023-02-01T13:42:13;9.90;;;6.30;;
32365;SDS011;18837;46.832;16.838;2023-02-01T13:45:37;9.07;;;5.97;;
32365;SDS011;18837;46.832;16.838;2023-02-01T13:47:44;8.27;;;5.90;;
32365;SDS011;18837;46.832;16.838;2023-02-01T13:52:55;8.90;;;6.00;;
32365;SDS011;18837;46.832;16.838;2023-02-01T13:55:36;9.17;;;6.13;;
32365;SDS011;18837;46.832;16.838;2023-02-01T13:58:15;9.20;;;5.83;;
32365;SDS011;18837;46.832;16.838;2023-02-01T14:00:48;7.67;;;5.77;;
32365;SDS011;18837;46.832;16.838;2023-02-01T14:03:20;8.73;;;6.20;;
32365;SDS011;18837;46.832;16.838;2023-02-01T14:08:24;10.57;;;7.20;;
32365;SDS011;18837;46.832;16.838;2023-02-01T14:11:02;11.27;;;6.60;;
32365;SDS011;18837;46.832;16.838;2023-02-01T14:13:32;12.07;;;7.10;;
32365;SDS011;18837;46.832;16.838;2023-02-01T14:21:19;12.00;;;7.17;;
32365;SDS011;18837;46.832;16.838;2023-02-01T14:24:14;10.27;;;6.87;;
32365;SDS011;18837;46.832;16.838;2023-02-01T14:26:47;12.63;;;7.43;;
32365;SDS011;18837;46.832;16.838;2023-02-01T14:29:22;12.07;;;7.57;;
32365;SDS011;18837;46.832;16.838;2023-02-01T14:32:05;9.27;;;6.43;;
32365;SDS011;18837;46.832;16.838;2023-02-01T14:47:54;9.70;;;6.60;;
32365;SDS011;18837;46.832;16.838;2023-02-01T14:50:33;13.00;;;7.50;;
32365;SDS011;18837;46.832;16.838;2023-02-01T15:04:06;9.83;;;6.87;;
32365;SDS011;18837;46.832;16.838;2023-02-01T15:09:45;10.13;;;6.73;;
32365;SDS011;18837;46.832;16.838;2023-02-01T15:15:22;8.43;;;6.00;;
32365;SDS011;18837;46.832;16.838;2023-02-01T15:17:42;9.33;;;6.47;;
32365;SDS011;18837;46.832;16.838;2023-02-01T15:20:17;9.10;;;6.07;;
32365;SDS011;18837;46.832;16.838;2023-02-01T15:23:19;8.00;;;5.80;;
32365;SDS011;18837;46.832;16.838;2023-02-01T15:25:45;9.10;;;5.87;;
32365;SDS011;18837;46.832;16.838;2023-02-01T15:28:15;10.23;;;6.47;;
32365;SDS011;18837;46.832;16.838;2023-02-01T15:30:51;9.90;;;6.63;;
32365;SDS011;18837;46.832;16.838;2023-02-01T15:33:19;6.83;;;5.53;;
32365;SDS011;18837;46.832;16.838;2023-02-01T15:43:22;9.30;;;6.20;;
32365;SDS011;18837;46.832;16.838;2023-02-01T15:45:48;8.60;;;5.83;;
32365;SDS011;18837;46.832;16.838;2023-02-01T15:48:19;9.70;;;6.03;;
32365;SDS011;18837;46.832;16.838;2023-02-01T15:50:54;7.70;;;5.47;;
32365;SDS011;18837;46.832;16.838;2023-02-01T15:53:21;7.60;;;5.30;;
32365;SDS011;18837;46.832;16.838;2023-02-01T15:55:51;7.73;;;5.43;;
32365;SDS011;18837;46.832;16.838;2023-02-01T15:58:21;8.80;;;5.90;;
32365;SDS011;18837;46.832;16.838;2023-02-01T16:00:59;8.40;;;5.43;;
32365;SDS011;18837;46.832;16.838;2023-02-01T16:03:35;9.23;;;5.67;;
32365;SDS011;18837;46.832;16.838;2023-02-01T16:06:04;13.50;;;6.53;;
32365;SDS011;18837;46.832;16.838;2023-02-01T16:08:34;11.37;;;7.17;;
32365;SDS011;18837;46.832;16.838;2023-02-01T16:13:33;13.97;;;7.07;;
32365;SDS011;18837;46.832;16.838;2023-02-01T16:15:59;12.43;;;7.37;;
32365;SDS011;18837;46.832;16.838;2023-02-01T16:18:25;13.97;;;7.83;;
32365;SDS011;18837;46.832;16.838;2023-02-01T16:20:50;11.53;;;6.93;;
32365;SDS011;18837;46.832;16.838;2023-02-01T16:23:16;11.70;;;7.10;;
32365;SDS011;18837;46.832;16.838;2023-02-01T16:25:43;13.27;;;7.73;;
32365;SDS011;18837;46.832;16.838;2023-02-01T16:28:09;13.60;;;7.63;;
32365;SDS011;18837;46.832;16.838;2023-02-01T16:30:34;12.10;;;7.50;;
32365;SDS011;18837;46.832;16.838;2023-02-01T16:33:01;12.17;;;6.20;;
32365;SDS011;18837;46.832;16.838;2023-02-01T16:38:01;10.77;;;6.70;;
32365;SDS011;18837;46.832;16.838;2023-02-01T16:40:33;13.27;;;7.40;;
32365;SDS011;18837;46.832;16.838;2023-02-01T16:42:59;11.80;;;7.00;;
32365;SDS011;18837;46.832;16.838;2023-02-01T16:45:25;14.33;;;8.77;;
32365;SDS011;18837;46.832;16.838;2023-02-01T16:47:52;16.20;;;8.40;;
32365;SDS011;18837;46.832;16.838;2023-02-01T16:50:20;12.97;;;8.40;;
32365;SDS011;18837;46.832;16.838;2023-02-01T16:52:47;15.77;;;8.27;;
32365;SDS011;18837;46.832;16.838;2023-02-01T16:55:14;17.27;;;8.30;;
32365;SDS011;18837;46.832;16.838;2023-02-01T16:57:41;11.30;;;7.53;;
32365;SDS011;18837;46.832;16.838;2023-02-01T17:00:08;12.17;;;7.83;;
32365;SDS011;18837;46.832;16.838;2023-02-01T17:02:37;14.33;;;8.00;;
32365;SDS011;18837;46.832;16.838;2023-02-01T17:05:04;15.23;;;7.87;;
32365;SDS011;18837;46.832;16.838;2023-02-01T17:07:30;12.23;;;7.33;;
32365;SDS011;18837;46.832;16.838;2023-02-01T17:09:56;14.20;;;7.00;;
32365;SDS011;18837;46.832;16.838;2023-02-01T17:12:23;12.40;;;7.00;;
32365;SDS011;18837;46.832;16.838;2023-02-01T17:14:50;11.50;;;6.90;;
32365;SDS011;18837;46.832;16.838;2023-02-01T17:17:17;9.87;;;6.57;;
32365;SDS011;18837;46.832;16.838;2023-02-01T17:19:44;10.27;;;6.53;;
32365;SDS011;18837;46.832;16.838;2023-02-01T17:22:21;11.10;;;6.77;;
32365;SDS011;18837;46.832;16.838;2023-02-01T17:24:48;12.10;;;7.13;;
32365;SDS011;18837;46.832;16.838;2023-02-01T17:27:14;8.50;;;6.00;;
32365;SDS011;18837;46.832;16.838;2023-02-01T17:29:41;8.87;;;6.30;;
32365;SDS011;18837;46.832;16.838;2023-02-01T17:32:18;12.63;;;6.63;;
32365;SDS011;18837;46.832;16.838;2023-02-01T17:34:53;10.40;;;6.63;;
32365;SDS011;18837;46.832;16.838;2023-02-01T17:37:26;8.17;;;5.87;;
32365;SDS011;18837;46.832;16.838;2023-02-01T17:39:53;9.10;;;6.13;;
32365;SDS011;18837;46.832;16.838;2023-02-01T17:42:19;12.83;;;6.57;;
32365;SDS011;18837;46.832;16.838;2023-02-01T17:44:45;7.53;;;5.90;;
32365;SDS011;18837;46.832;16.838;2023-02-01T17:47:11;10.20;;;5.83;;